UAL183 PGUM-RPLL
Flight info
| Callsign | UAL183 |
|---|---|
| Flight time | N/A |
| Altitude | 34000 |
| Route | KITSS G467 ENDAX DCT MEXOL W9 AKDAP AKDAP5R |
| Aircraft | B738/M-SDE2E3FGHIRWXY/LB1 |
Departure
| Time | 2026-04-26 17:17 |
|---|---|
| Airport | Antonio B. Won Pat International Airport (PGUM) |
Arrival
| Time | N/A |
|---|---|
| Airport | Ninoy Aquino International Airport (RPLL) |
| Time | Latitude | Longitude | Altitude | Speed | Heading |
|---|---|---|---|---|---|
| 2026-04-26 16:31 | 13.49420 | 144.80817 | 300 ft | 0 kts | 153° |
| 2026-04-26 17:01 | 13.49432 | 144.80811 | 306 ft | 4 kts | 153° |
| 2026-04-26 17:01 | 13.49456 | 144.80798 | 298 ft | 4 kts | 153° |
| 2026-04-26 17:01 | 13.49475 | 144.80788 | 294 ft | 4 kts | 134° |
| 2026-04-26 17:01 | 13.49479 | 144.80772 | 298 ft | 3 kts | 60° |
| 2026-04-26 17:02 | 13.49467 | 144.80750 | 299 ft | 2 kts | 62° |
| 2026-04-26 17:02 | 13.49466 | 144.80748 | 299 ft | 1 kts | 62° |
| 2026-04-26 17:05 | 13.49468 | 144.80751 | 299 ft | 3 kts | 62° |
| 2026-04-26 17:05 | 13.49487 | 144.80790 | 299 ft | 7 kts | 62° |
| 2026-04-26 17:05 | 13.49517 | 144.80847 | 295 ft | 10 kts | 61° |
| 2026-04-26 17:05 | 13.49546 | 144.80912 | 299 ft | 10 kts | 79° |
| 2026-04-26 17:06 | 13.49520 | 144.80972 | 300 ft | 10 kts | 150° |
| 2026-04-26 17:06 | 13.49448 | 144.81010 | 302 ft | 14 kts | 152° |
| 2026-04-26 17:06 | 13.49360 | 144.81043 | 306 ft | 13 kts | 180° |
| 2026-04-26 17:06 | 13.49274 | 144.81018 | 303 ft | 13 kts | 201° |
| 2026-04-26 17:07 | 13.49216 | 144.80985 | 303 ft | 4 kts | 242° |
| 2026-04-26 17:07 | 13.49228 | 144.80918 | 301 ft | 13 kts | 281° |
| 2026-04-26 17:07 | 13.49207 | 144.80812 | 297 ft | 22 kts | 245° |
| 2026-04-26 17:07 | 13.49129 | 144.80660 | 291 ft | 24 kts | 242° |
| 2026-04-26 17:08 | 13.49052 | 144.80514 | 289 ft | 23 kts | 242° |
| 2026-04-26 17:08 | 13.48956 | 144.80390 | 289 ft | 22 kts | 223° |
| 2026-04-26 17:08 | 13.48869 | 144.80263 | 284 ft | 21 kts | 240° |
| 2026-04-26 17:08 | 13.48805 | 144.80127 | 280 ft | 21 kts | 245° |
| 2026-04-26 17:09 | 13.48733 | 144.79968 | 277 ft | 26 kts | 245° |
| 2026-04-26 17:09 | 13.48709 | 144.79916 | 275 ft | 25 kts | 244° |
| 2026-04-26 17:09 | 13.48612 | 144.79709 | 268 ft | 23 kts | 245° |
| 2026-04-26 17:09 | 13.48547 | 144.79562 | 264 ft | 22 kts | 245° |
| 2026-04-26 17:10 | 13.48477 | 144.79411 | 260 ft | 24 kts | 245° |
| 2026-04-26 17:10 | 13.48410 | 144.79258 | 258 ft | 23 kts | 244° |
| 2026-04-26 17:10 | 13.48340 | 144.79113 | 256 ft | 22 kts | 244° |
| 2026-04-26 17:10 | 13.48276 | 144.78971 | 257 ft | 22 kts | 245° |
| 2026-04-26 17:11 | 13.48215 | 144.78833 | 254 ft | 21 kts | 245° |
| 2026-04-26 17:11 | 13.48154 | 144.78699 | 252 ft | 20 kts | 242° |
| 2026-04-26 17:11 | 13.48096 | 144.78571 | 248 ft | 20 kts | 245° |
| 2026-04-26 17:11 | 13.48035 | 144.78445 | 242 ft | 19 kts | 244° |
| 2026-04-26 17:12 | 13.47928 | 144.78207 | 238 ft | 18 kts | 244° |
| 2026-04-26 17:12 | 13.47897 | 144.78154 | 237 ft | 4 kts | 230° |
| 2026-04-26 17:13 | 13.47802 | 144.78156 | 238 ft | 11 kts | 131° |
| 2026-04-26 17:13 | 13.47805 | 144.78212 | 236 ft | 7 kts | 65° |
| 2026-04-26 17:13 | 13.48035 | 144.78709 | 248 ft | 46 kts | 63° |
| 2026-04-26 17:14 | 13.48164 | 144.78978 | 254 ft | 36 kts | 64° |
| 2026-04-26 17:14 | 13.48264 | 144.78942 | 257 ft | 14 kts | 242° |
| 2026-04-26 17:14 | 13.48222 | 144.78851 | 254 ft | 14 kts | 246° |
| 2026-04-26 17:15 | 13.48143 | 144.78680 | 251 ft | 15 kts | 245° |
| 2026-04-26 17:15 | 13.48084 | 144.78552 | 247 ft | 22 kts | 244° |
| 2026-04-26 17:15 | 13.48019 | 144.78408 | 241 ft | 22 kts | 244° |
| 2026-04-26 17:16 | 13.47954 | 144.78267 | 238 ft | 21 kts | 245° |
| 2026-04-26 17:16 | 13.47885 | 144.78137 | 234 ft | 19 kts | 215° |
| 2026-04-26 17:16 | 13.47800 | 144.78155 | 238 ft | 9 kts | 141° |
| 2026-04-26 17:16 | 13.47805 | 144.78211 | 236 ft | 10 kts | 64° |
| 2026-04-26 17:17 | 13.47901 | 144.78419 | 240 ft | 63 kts | 64° |
| 2026-04-26 17:17 | 13.48178 | 144.79025 | 256 ft | 122 kts | 65° |
| 2026-04-26 17:17 | 13.48617 | 144.79968 | 356 ft | 165 kts | 64° |
| 2026-04-26 17:17 | 13.49136 | 144.81047 | 1100 ft | 163 kts | 64° |
| 2026-04-26 17:18 | 13.49652 | 144.82093 | 1833 ft | 171 kts | 64° |
| 2026-04-26 17:18 | 13.50376 | 144.83177 | 2075 ft | 199 kts | 41° |
| 2026-04-26 17:18 | 13.51740 | 144.83720 | 2350 ft | 227 kts | 8° |
| 2026-04-26 17:18 | 13.53422 | 144.83424 | 2470 ft | 269 kts | 338° |
| 2026-04-26 17:19 | 13.56478 | 144.81047 | 4059 ft | 278 kts | 320° |
| 2026-04-26 17:19 | 13.57567 | 144.79376 | 4733 ft | 290 kts | 286° |
| 2026-04-26 17:19 | 13.57798 | 144.77326 | 5537 ft | 292 kts | 272° |
| 2026-04-26 17:20 | 13.57872 | 144.75238 | 6357 ft | 293 kts | 271° |
| 2026-04-26 17:20 | 13.57916 | 144.73849 | 6800 ft | 297 kts | 271° |
| 2026-04-26 17:20 | 13.58022 | 144.70996 | 7771 ft | 300 kts | 271° |
| 2026-04-26 17:20 | 13.58122 | 144.68839 | 8511 ft | 303 kts | 271° |
| 2026-04-26 17:21 | 13.58238 | 144.66672 | 9272 ft | 305 kts | 271° |
| 2026-04-26 17:21 | 13.58366 | 144.64482 | 9972 ft | 309 kts | 271° |
| 2026-04-26 17:21 | 13.58506 | 144.62239 | 10414 ft | 323 kts | 271° |
| 2026-04-26 17:21 | 13.58658 | 144.59855 | 10567 ft | 345 kts | 271° |
| 2026-04-26 17:22 | 13.58825 | 144.57327 | 10851 ft | 361 kts | 271° |
| 2026-04-26 17:22 | 13.59002 | 144.54739 | 11424 ft | 365 kts | 271° |
| 2026-04-26 17:22 | 13.59183 | 144.52141 | 12122 ft | 365 kts | 271° |
| 2026-04-26 17:22 | 13.59367 | 144.49536 | 12814 ft | 366 kts | 271° |
| 2026-04-26 17:23 | 13.59549 | 144.46956 | 13465 ft | 367 kts | 271° |
| 2026-04-26 17:23 | 13.59734 | 144.44329 | 14067 ft | 369 kts | 271° |
| 2026-04-26 17:23 | 13.59920 | 144.41687 | 14588 ft | 372 kts | 271° |
| 2026-04-26 17:23 | 13.60106 | 144.39031 | 15075 ft | 376 kts | 271° |
| 2026-04-26 17:24 | 13.60294 | 144.36333 | 15564 ft | 379 kts | 272° |
| 2026-04-26 17:24 | 13.60484 | 144.33616 | 16077 ft | 382 kts | 272° |
| 2026-04-26 17:24 | 13.60675 | 144.30884 | 16559 ft | 385 kts | 273° |
| 2026-04-26 17:24 | 13.60868 | 144.28129 | 17042 ft | 388 kts | 273° |
| 2026-04-26 17:25 | 13.61062 | 144.25345 | 17524 ft | 392 kts | 274° |
| 2026-04-26 17:25 | 13.61256 | 144.22548 | 18011 ft | 394 kts | 274° |
| 2026-04-26 17:25 | 13.61452 | 144.19733 | 18444 ft | 397 kts | 274° |
| 2026-04-26 17:25 | 13.61649 | 144.16889 | 18849 ft | 400 kts | 274° |
| 2026-04-26 17:26 | 13.61847 | 144.14030 | 19241 ft | 403 kts | 275° |
| 2026-04-26 17:26 | 13.62046 | 144.11149 | 19614 ft | 406 kts | 275° |
| 2026-04-26 17:26 | 13.62247 | 144.08234 | 20025 ft | 408 kts | 275° |
| 2026-04-26 17:26 | 13.62447 | 144.05318 | 20434 ft | 410 kts | 275° |
| 2026-04-26 17:27 | 13.62648 | 144.02392 | 20820 ft | 413 kts | 275° |
| 2026-04-26 17:27 | 13.62852 | 143.99422 | 21174 ft | 417 kts | 275° |
| 2026-04-26 17:27 | 13.63056 | 143.96438 | 21516 ft | 420 kts | 276° |
| 2026-04-26 17:27 | 13.63261 | 143.93436 | 21915 ft | 422 kts | 276° |
| 2026-04-26 17:28 | 13.63468 | 143.90410 | 22256 ft | 425 kts | 275° |
| 2026-04-26 17:28 | 13.63674 | 143.87371 | 22629 ft | 428 kts | 276° |
| 2026-04-26 17:28 | 13.63879 | 143.84349 | 22951 ft | 431 kts | 276° |
| 2026-04-26 17:28 | 13.64088 | 143.81265 | 23285 ft | 434 kts | 276° |
| 2026-04-26 17:29 | 13.64298 | 143.78160 | 23631 ft | 436 kts | 276° |
| 2026-04-26 17:29 | 13.64440 | 143.76058 | 23840 ft | 437 kts | 275° |
| 2026-04-26 17:29 | 13.64718 | 143.71932 | 24255 ft | 438 kts | 276° |
| 2026-04-26 17:29 | 13.64929 | 143.68794 | 24540 ft | 440 kts | 276° |
| 2026-04-26 17:30 | 13.65141 | 143.65641 | 24816 ft | 442 kts | 276° |
| 2026-04-26 17:30 | 13.65352 | 143.62489 | 25132 ft | 443 kts | 276° |
| 2026-04-26 17:30 | 13.65564 | 143.59319 | 25442 ft | 444 kts | 276° |
| 2026-04-26 17:30 | 13.65776 | 143.56144 | 25715 ft | 446 kts | 276° |
| 2026-04-26 17:31 | 13.65988 | 143.52955 | 25987 ft | 448 kts | 276° |
| 2026-04-26 17:31 | 13.66201 | 143.49752 | 26263 ft | 450 kts | 276° |
| 2026-04-26 17:31 | 13.66414 | 143.46546 | 26533 ft | 451 kts | 276° |
| 2026-04-26 17:31 | 13.66628 | 143.43318 | 26798 ft | 453 kts | 276° |
| 2026-04-26 17:32 | 13.66842 | 143.40076 | 27051 ft | 455 kts | 276° |
| 2026-04-26 17:32 | 13.67056 | 143.36831 | 27304 ft | 456 kts | 276° |
| 2026-04-26 17:32 | 13.67271 | 143.33574 | 27568 ft | 457 kts | 276° |
| 2026-04-26 17:32 | 13.67486 | 143.30303 | 27819 ft | 459 kts | 276° |
| 2026-04-26 17:33 | 13.67701 | 143.27026 | 28055 ft | 461 kts | 276° |
| 2026-04-26 17:33 | 13.67916 | 143.23729 | 28288 ft | 462 kts | 276° |
| 2026-04-26 17:33 | 13.68132 | 143.20430 | 28499 ft | 464 kts | 276° |
| 2026-04-26 17:34 | 13.68565 | 143.13778 | 28952 ft | 467 kts | 276° |
| 2026-04-26 17:34 | 13.68781 | 143.10445 | 29176 ft | 468 kts | 276° |
| 2026-04-26 17:34 | 13.68995 | 143.07141 | 29383 ft | 470 kts | 276° |
| 2026-04-26 17:34 | 13.69212 | 143.03787 | 29609 ft | 471 kts | 276° |
| 2026-04-26 17:35 | 13.69428 | 143.00428 | 29907 ft | 470 kts | 276° |
| 2026-04-26 17:35 | 13.69644 | 142.97076 | 30191 ft | 469 kts | 276° |
| 2026-04-26 17:35 | 13.69858 | 142.93732 | 30442 ft | 468 kts | 276° |
| 2026-04-26 17:35 | 13.70072 | 142.90388 | 30706 ft | 468 kts | 276° |
| 2026-04-26 17:36 | 13.70285 | 142.87053 | 30974 ft | 467 kts | 276° |
| 2026-04-26 17:36 | 13.70497 | 142.83732 | 31245 ft | 466 kts | 276° |
| 2026-04-26 17:36 | 13.70709 | 142.80405 | 31510 ft | 465 kts | 276° |
| 2026-04-26 17:36 | 13.70920 | 142.77091 | 31792 ft | 464 kts | 276° |
| 2026-04-26 17:37 | 13.71130 | 142.73783 | 32073 ft | 463 kts | 276° |
| 2026-04-26 17:37 | 13.71339 | 142.70478 | 32333 ft | 463 kts | 276° |
| 2026-04-26 17:37 | 13.71547 | 142.67181 | 32656 ft | 461 kts | 276° |
| 2026-04-26 17:38 | 13.71959 | 142.60630 | 33276 ft | 458 kts | 275° |
| 2026-04-26 17:38 | 13.72164 | 142.57365 | 33554 ft | 457 kts | 276° |
| 2026-04-26 17:38 | 13.72368 | 142.54108 | 33840 ft | 456 kts | 276° |
| 2026-04-26 17:38 | 13.72572 | 142.50854 | 33913 ft | 459 kts | 276° |
| 2026-04-26 17:39 | 13.72980 | 142.44303 | 33910 ft | 457 kts | 275° |
| 2026-04-26 17:39 | 13.73382 | 142.37808 | 33923 ft | 453 kts | 275° |
| 2026-04-26 17:40 | 13.73646 | 142.33538 | 33922 ft | 451 kts | 275° |
| 2026-04-26 17:40 | 13.74173 | 142.24987 | 33925 ft | 449 kts | 276° |
| 2026-04-26 17:41 | 13.74566 | 142.18582 | 33929 ft | 449 kts | 275° |
| 2026-04-26 17:41 | 13.74957 | 142.12162 | 33927 ft | 450 kts | 275° |
| 2026-04-26 17:42 | 13.75348 | 142.05730 | 33927 ft | 451 kts | 275° |
| 2026-04-26 17:42 | 13.75738 | 141.99276 | 33928 ft | 453 kts | 276° |
| 2026-04-26 17:43 | 13.76129 | 141.92796 | 33934 ft | 455 kts | 275° |
| 2026-04-26 17:43 | 13.76519 | 141.86287 | 33930 ft | 456 kts | 275° |
| 2026-04-26 17:44 | 13.76908 | 141.79761 | 33921 ft | 458 kts | 275° |
| 2026-04-26 17:44 | 13.77296 | 141.73227 | 33927 ft | 458 kts | 275° |
| 2026-04-26 17:45 | 13.77683 | 141.66683 | 33925 ft | 458 kts | 275° |
| 2026-04-26 17:45 | 13.78068 | 141.60146 | 33925 ft | 457 kts | 275° |
| 2026-04-26 17:46 | 13.78450 | 141.53620 | 33923 ft | 457 kts | 275° |
| 2026-04-26 17:46 | 13.78830 | 141.47105 | 33931 ft | 456 kts | 275° |
| 2026-04-26 17:47 | 13.79080 | 141.42801 | 33918 ft | 455 kts | 275° |
| 2026-04-26 17:47 | 13.79582 | 141.34126 | 33926 ft | 453 kts | 275° |
| 2026-04-26 17:48 | 13.79954 | 141.27659 | 33934 ft | 452 kts | 275° |